GMFO/OUD METAR and TAF weather

Enter ICAO airport designator
Station Type Date Time Source
GMFO METAR 2020/09/24 10:00 UTC NOAA

GMFO 241000Z 01004KT 290V070 CAVOK 30/08 Q1018 NOSIG


Station Type Date Time Source
GMFO Decoded METAR 2020/09/24 10:00 UTC NOAA

Oujda, Morocco (GMFO) 34-47N 001-56W 470M
Sep 24, 2020 - 06:00 AM EDT / 2020.09.24 1000 UTC
Wind: from the N (010 degrees) at 5 MPH (4 KT) (direction variable):0
Visibility: greater than 7 mile(s):0
Temperature: 86 F (30 C)
Dew Point: 46 F (8 C)
Relative Humidity: 25%
Pressure (altimeter): 30.06 in. Hg (1018 hPa)
ob: GMFO 241000Z 01004KT 290V070 CAVOK 30/08 Q1018 NOSIG
cycle: 10

Station Type Date Time Source
GMFO TAF 2020/09/24 06:18 UTC NOAA

TAF TAF GMFO 240500Z 2406/2512 20004KT CAVOK
TEMPO 2416/2420 32014KT

Example: see airport list